• Join FlightAware (Why Join?)
  • Login
  • US Flag 
06:38AM EDT


 

Airport Tracker/Info


-or-


 

Live Flight TrackerFlight Track Log ✈ UCA3596 ✈ 07-Oct-2013 ✈ KIAD - KBGM

Flight Track Log - Related Links

Times and Time Zones

All times are in EDT time to prevent confusion due to time zone crossing. See the UCA3596 flight status page for this flight to view local times or setup timezone preferences in your user account.

Time Position Orientation Groundspeed Altitude Reporting Facility
EDT Latitude Longitude Course Direction KTS MPH feet Rate Location/Type
01:38PM 39.4805 -77.2282 19° North  Level Estimated
01:39PM 39.5566 -77.1948 19° North  Level Estimated
01:40PM 39.6327 -77.1613 19° North  Level Estimated
01:41PM 39.7088 -77.1277 19° North  Level Estimated
01:42PM 39.7849 -77.0941 19° North  Level Estimated
01:43PM 39.8610 -77.0604 19° North  Level Estimated
01:44PM 39.9371 -77.0266 19° North  Level Estimated
01:45PM 40.0131 -76.9928 19° North  Level Estimated
01:46PM 40.0892 -76.9589 19° North  Level Estimated
01:47PM 40.1652 -76.9249 19° North  Level Estimated
01:48PM 40.2412 -76.8908 19° North  Level Estimated
01:49PM 40.3173 -76.8566 19° North  Level Estimated
01:50PM 40.3933 -76.8224 19° North  Level Estimated
01:51PM 40.4693 -76.7881 19° North  Level Estimated
01:52PM 40.5453 -76.7537 19° North  Level Estimated
01:53PM 40.6213 -76.7193 19° North  Level Estimated
01:54PM 40.6972 -76.6847 19° North  Level Estimated
01:55PM 40.7732 -76.6501 19° North  Level Estimated
01:56PM 40.8491 -76.6154 19° North  Level Estimated
01:57PM 40.9250 -76.5806 19° North  Level Estimated
01:58PM 41.0010 -76.5458 19° North  Level Estimated
01:59PM 41.0769 -76.5108 19° North  Level Estimated
02:00PM 41.1528 -76.4758 19° North  Level Estimated
02:01PM 41.2287 -76.4407 19° North  Level Estimated
02:02PM 41.3046 -76.4055 19° North  Level Estimated
02:03PM 41.3804 -76.3703 19° North  Level Estimated
02:04PM 41.4563 -76.3349 19° North  Level Estimated
02:05PM 41.5321 -76.2995 19° North  Level Estimated
02:06PM 41.6080 -76.2640 19° North  Level Estimated
02:07PM 41.6838 -76.2284 19° North  Level Estimated
02:08PM 41.7596 -76.1927 19° North  Level Estimated
02:09PM 41.8354 -76.1569 19° North  Level Estimated
02:10PM 41.9112 -76.1211 19° North  Level Estimated
02:11PM 41.9870 -76.0851 19° North  Level Estimated
02:12PM 42.0628 -76.0491 19° North  Level Estimated
02:13PM 42.1385 -76.0130 19° North  Level Estimated
02:14PM 42.2084 -75.9796 19° North  Level Estimated
02:15PM 42.2084 -75.9796 35° Northeast  Level Estimated
02:16PM 42.2084 -75.9796 35° Northeast  Level Estimated
02:17PM 42.2084 -75.9796 35° Northeast  Level Estimated
02:18PM 42.2084 -75.9796 35° Northeast  Level Estimated
02:19PM 42.2084 -75.9796 35° Northeast  Level Estimated
02:20PM 42.2084 -75.9796 35° Northeast  Level Estimated
02:21PM 42.2084 -75.9796 35° Northeast  Level Estimated
02:22PM 42.2084 -75.9796 35° Northeast  Level Estimated
02:23PM 42.2084 -75.9796 35° Northeast  Level Estimated
02:24PM 42.2084 -75.9796 35° Northeast  Level Estimated
02:25PM 42.2084 -75.9796 35° Northeast  Level Estimated
02:26PM 42.2084 -75.9796 35° Northeast  Level Estimated
02:27PM 42.2084 -75.9796 35° Northeast  Level Estimated
02:28PM 42.2084 -75.9796 35° Northeast  Level Estimated
02:29PM 42.2084 -75.9796 35° Northeast  Level Estimated
02:30PM 42.2084 -75.9796 35° Northeast  Level Estimated